Time;durP1;ratioP1;P1;durP2;ratioP2;P2;SDS_P1;SDS_P2;PMS_P1;PMS_P2;Temp;Humidity;BMP_temperature;BMP_pressure;BME280_temperature;BME280_humidity;BME280_pressure;Samples;Min_cycle;Max_cycle;Signal;HPM_P1;HPM_P2
2023/11/07 00:00:21;;;;;;;8.27;5.87;;;;;;;;;;5051128;28;20961;-45
2023/11/07 00:02:53;;;;;;;8.83;6.20;;;;;;;;;;5043775;28;20501;-45
2023/11/07 00:05:19;;;;;;;6.80;5.23;;;;;;;;;;5043222;28;20444;-46
2023/11/07 00:07:45;;;;;;;9.43;6.83;;;;;;;;;;5048858;28;20461;-45
2023/11/07 00:10:11;;;;;;;8.53;5.97;;;;;;;;;;5050515;28;20416;-44
2023/11/07 00:12:37;;;;;;;8.10;5.67;;;;;;;;;;5050987;28;20504;-45
2023/11/07 00:15:04;;;;;;;8.50;6.03;;;;;;;;;;5050743;28;20437;-45
2023/11/07 00:17:29;;;;;;;8.13;5.63;;;;;;;;;;5050914;28;20527;-45
2023/11/07 00:19:56;;;;;;;8.03;5.53;;;;;;;;;;5049677;28;20484;-45
2023/11/07 00:22:23;;;;;;;7.17;5.03;;;;;;;;;;5054365;28;20905;-44
2023/11/07 00:24:49;;;;;;;8.83;6.43;;;;;;;;;;5054103;28;20437;-45
2023/11/07 00:27:16;;;;;;;8.83;6.03;;;;;;;;;;5054223;28;20492;-45
2023/11/07 00:29:42;;;;;;;8.27;5.80;;;;;;;;;;5054602;28;20413;-45
2023/11/07 00:32:08;;;;;;;8.20;5.80;;;;;;;;;;5054330;28;20424;-44
2023/11/07 00:34:34;;;;;;;8.37;5.87;;;;;;;;;;5053821;28;20429;-44
2023/11/07 00:37:00;;;;;;;9.63;6.27;;;;;;;;;;5051436;28;20409;-45
2023/11/07 00:39:26;;;;;;;7.97;6.17;;;;;;;;;;5053944;28;20931;-44
2023/11/07 00:41:52;;;;;;;8.43;5.77;;;;;;;;;;5054218;28;20508;-45
2023/11/07 00:44:18;;;;;;;7.77;5.80;;;;;;;;;;5053771;28;20965;-44
2023/11/07 00:46:44;;;;;;;7.90;5.80;;;;;;;;;;5053873;28;21100;-45
2023/11/07 00:49:10;;;;;;;8.23;6.07;;;;;;;;;;5053241;28;20409;-45
2023/11/07 00:51:36;;;;;;;7.17;5.47;;;;;;;;;;5053882;28;20751;-44
2023/11/07 00:54:02;;;;;;;8.40;6.17;;;;;;;;;;5053446;28;20430;-44
2023/11/07 00:56:28;;;;;;;8.43;6.13;;;;;;;;;;5053650;28;20417;-44
2023/11/07 00:58:54;;;;;;;8.23;5.80;;;;;;;;;;5053615;28;20408;-44
2023/11/07 01:01:20;;;;;;;8.40;6.23;;;;;;;;;;5053657;28;20768;-44
2023/11/07 01:03:46;;;;;;;9.30;6.80;;;;;;;;;;5053242;28;20412;-44
2023/11/07 01:06:12;;;;;;;8.63;6.20;;;;;;;;;;5053520;28;20393;-44
2023/11/07 01:08:38;;;;;;;7.33;5.60;;;;;;;;;;5053416;28;20468;-44
2023/11/07 01:11:05;;;;;;;8.43;6.27;;;;;;;;;;5053110;28;20414;-45
2023/11/07 01:13:31;;;;;;;10.47;7.37;;;;;;;;;;5053237;28;20508;-44
2023/11/07 01:15:58;;;;;;;9.00;7.20;;;;;;;;;;5052520;28;20992;-45
2023/11/07 01:18:24;;;;;;;8.20;6.13;;;;;;;;;;5053650;28;20901;-45
2023/11/07 01:20:50;;;;;;;9.17;7.20;;;;;;;;;;5053324;28;20421;-44
2023/11/07 01:23:16;;;;;;;11.00;7.97;;;;;;;;;;5053153;28;20475;-44
2023/11/07 01:25:42;;;;;;;9.03;6.93;;;;;;;;;;5053088;28;20440;-44
2023/11/07 01:28:08;;;;;;;8.73;6.97;;;;;;;;;;5053277;28;20496;-45
2023/11/07 01:30:34;;;;;;;8.13;6.47;;;;;;;;;;5052579;28;20417;-44
2023/11/07 01:33:00;;;;;;;9.07;7.57;;;;;;;;;;5052743;28;20417;-45
2023/11/07 01:35:26;;;;;;;8.20;6.83;;;;;;;;;;5052830;28;20437;-44
2023/11/07 01:37:52;;;;;;;8.27;6.67;;;;;;;;;;5052814;28;20419;-44
2023/11/07 01:40:18;;;;;;;8.67;6.93;;;;;;;;;;5052961;28;20417;-44
2023/11/07 01:42:51;;;;;;;7.53;6.53;;;;;;;;;;5053009;28;20442;-45
2023/11/07 01:45:17;;;;;;;8.50;7.03;;;;;;;;;;5043439;28;20441;-45
2023/11/07 01:47:44;;;;;;;8.93;7.27;;;;;;;;;;5050335;28;20453;-44
2023/11/07 01:50:10;;;;;;;9.00;7.47;;;;;;;;;;5052726;28;20528;-45
2023/11/07 01:52:37;;;;;;;8.90;7.57;;;;;;;;;;5052763;28;20927;-44
2023/11/07 01:55:03;;;;;;;9.23;7.90;;;;;;;;;;5052397;28;20438;-44
2023/11/07 01:57:29;;;;;;;8.50;6.77;;;;;;;;;;5051923;28;20931;-44
2023/11/07 01:59:55;;;;;;;8.93;7.80;;;;;;;;;;5050213;28;20420;-44
2023/11/07 02:02:23;;;;;;;10.30;7.80;;;;;;;;;;5051419;28;20437;-44
2023/11/07 02:04:49;;;;;;;8.20;7.03;;;;;;;;;;5048222;28;20928;-45
2023/11/07 02:07:15;;;;;;;9.67;7.07;;;;;;;;;;5051672;28;20460;-44
2023/11/07 02:09:41;;;;;;;8.13;6.73;;;;;;;;;;5051978;28;20454;-44
2023/11/07 02:12:09;;;;;;;9.03;7.70;;;;;;;;;;5051426;28;20409;-45
2023/11/07 02:14:36;;;;;;;8.57;7.27;;;;;;;;;;5052046;28;20448;-44
2023/11/07 02:17:03;;;;;;;8.73;7.37;;;;;;;;;;5052172;28;20421;-44
2023/11/07 02:19:29;;;;;;;9.73;8.17;;;;;;;;;;5052171;28;20409;-44
2023/11/07 02:21:59;;;;;;;9.33;8.17;;;;;;;;;;5052140;28;20843;-45
2023/11/07 02:24:25;;;;;;;8.43;7.53;;;;;;;;;;5045022;28;21040;-45
2023/11/07 02:26:54;;;;;;;8.67;7.40;;;;;;;;;;5051421;28;20544;-44
2023/11/07 02:29:21;;;;;;;8.63;7.50;;;;;;;;;;5052053;28;20406;-46
2023/11/07 02:31:47;;;;;;;8.90;7.47;;;;;;;;;;5051975;28;20414;-45
2023/11/07 02:34:13;;;;;;;8.43;6.93;;;;;;;;;;5051689;28;20440;-45
2023/11/07 02:36:39;;;;;;;8.67;7.73;;;;;;;;;;5051848;28;20543;-44
2023/11/07 02:39:07;;;;;;;9.77;7.90;;;;;;;;;;5051874;28;20408;-45
2023/11/07 02:41:33;;;;;;;9.13;8.03;;;;;;;;;;5051875;28;20408;-44
2023/11/07 02:43:59;;;;;;;8.83;7.87;;;;;;;;;;5049035;28;20429;-44
2023/11/07 02:46:26;;;;;;;9.77;8.40;;;;;;;;;;5051690;28;20417;-44
2023/11/07 02:48:52;;;;;;;8.53;7.20;;;;;;;;;;5051620;28;20464;-44
2023/11/07 02:51:18;;;;;;;8.43;7.13;;;;;;;;;;5051779;28;20632;-44
2023/11/07 02:53:46;;;;;;;8.57;7.23;;;;;;;;;;5051534;28;20509;-45
2023/11/07 02:56:13;;;;;;;7.80;7.00;;;;;;;;;;5059627;28;20419;-44
2023/11/07 02:58:39;;;;;;;7.93;7.00;;;;;;;;;;5051545;28;20409;-46
2023/11/07 03:01:06;;;;;;;8.83;7.67;;;;;;;;;;5051430;28;20432;-45
2023/11/07 03:03:32;;;;;;;10.27;8.77;;;;;;;;;;5056255;28;20913;-44
2023/11/07 03:05:59;;;;;;;7.60;6.70;;;;;;;;;;5057640;28;20479;-44
2023/11/07 03:08:25;;;;;;;9.20;8.07;;;;;;;;;;5044313;28;20567;-44
2023/11/07 03:10:51;;;;;;;8.93;7.63;;;;;;;;;;5051562;28;20500;-45
2023/11/07 03:13:20;;;;;;;11.40;9.00;;;;;;;;;;5049356;28;20988;-45
2023/11/07 03:15:47;;;;;;;9.57;7.87;;;;;;;;;;5048382;28;20937;-44
2023/11/07 03:18:13;;;;;;;8.63;7.60;;;;;;;;;;5051144;28;20406;-45
2023/11/07 03:20:39;;;;;;;9.43;7.77;;;;;;;;;;5051431;28;20439;-45
2023/11/07 03:23:05;;;;;;;10.07;8.97;;;;;;;;;;5051100;28;20420;-44
2023/11/07 03:25:31;;;;;;;7.60;6.80;;;;;;;;;;5050854;28;20433;-44
2023/11/07 03:27:57;;;;;;;8.60;7.67;;;;;;;;;;5049241;28;20547;-44
2023/11/07 03:30:24;;;;;;;8.37;7.47;;;;;;;;;;5051258;28;20414;-44
2023/11/07 03:32:50;;;;;;;9.17;8.27;;;;;;;;;;5051922;28;20474;-45
2023/11/07 03:35:17;;;;;;;11.03;9.13;;;;;;;;;;5049955;28;20425;-45
2023/11/07 03:37:43;;;;;;;9.90;8.90;;;;;;;;;;5050993;28;20422;-45
2023/11/07 03:40:10;;;;;;;8.43;7.53;;;;;;;;;;5051188;28;20990;-45
2023/11/07 03:42:36;;;;;;;8.43;7.30;;;;;;;;;;5054493;28;20850;-45
2023/11/07 03:45:02;;;;;;;9.47;8.43;;;;;;;;;;5055661;28;20959;-45
2023/11/07 03:47:28;;;;;;;9.47;8.13;;;;;;;;;;5054521;28;20478;-45
2023/11/07 03:49:54;;;;;;;9.63;8.30;;;;;;;;;;5054403;28;20397;-45
2023/11/07 03:52:20;;;;;;;9.00;7.80;;;;;;;;;;5058640;28;20401;-46
2023/11/07 03:54:46;;;;;;;8.53;7.50;;;;;;;;;;5050807;28;20433;-45
2023/11/07 03:57:12;;;;;;;8.63;7.43;;;;;;;;;;5057376;28;20452;-45
2023/11/07 03:59:38;;;;;;;8.83;7.37;;;;;;;;;;5059606;28;20828;-45
2023/11/07 04:02:05;;;;;;;9.00;7.17;;;;;;;;;;5048332;28;20414;-45
2023/11/07 04:04:31;;;;;;;9.07;7.73;;;;;;;;;;5059941;28;20890;-45
2023/11/07 04:06:58;;;;;;;10.17;8.67;;;;;;;;;;5055919;28;20463;-45
2023/11/07 04:09:24;;;;;;;8.23;6.97;;;;;;;;;;5054777;28;20417;-45
2023/11/07 04:11:50;;;;;;;8.27;7.37;;;;;;;;;;5054867;28;20786;-45
2023/11/07 04:14:17;;;;;;;8.83;7.63;;;;;;;;;;5049531;28;20440;-45
2023/11/07 04:16:44;;;;;;;9.37;8.40;;;;;;;;;;5060948;28;20408;-45
2023/11/07 04:19:11;;;;;;;9.57;8.57;;;;;;;;;;5062387;28;20409;-45
2023/11/07 04:21:37;;;;;;;9.47;8.47;;;;;;;;;;5054492;28;20413;-45
2023/11/07 04:24:07;;;;;;;9.43;8.27;;;;;;;;;;5057155;28;20483;-44
2023/11/07 04:26:33;;;;;;;8.80;7.90;;;;;;;;;;5056579;28;20785;-44
2023/11/07 04:28:59;;;;;;;9.47;8.47;;;;;;;;;;5056441;28;20422;-45
2023/11/07 04:31:27;;;;;;;9.03;8.23;;;;;;;;;;5060655;28;20429;-45
2023/11/07 04:33:53;;;;;;;10.90;9.80;;;;;;;;;;5061755;28;20902;-45
2023/11/07 04:36:19;;;;;;;9.67;8.73;;;;;;;;;;5052760;28;20427;-45
2023/11/07 04:38:45;;;;;;;9.43;8.47;;;;;;;;;;5057156;28;20417;-45
2023/11/07 04:41:15;;;;;;;10.30;9.27;;;;;;;;;;5054160;28;20409;-45
2023/11/07 04:43:43;;;;;;;9.23;8.37;;;;;;;;;;5053698;28;20456;-46
2023/11/07 04:46:09;;;;;;;9.40;8.17;;;;;;;;;;5056127;28;20410;-45
2023/11/07 04:48:35;;;;;;;9.27;8.27;;;;;;;;;;5059466;28;20485;-45
2023/11/07 04:51:02;;;;;;;9.17;8.00;;;;;;;;;;5053842;28;20539;-45
2023/11/07 04:53:29;;;;;;;11.80;10.13;;;;;;;;;;5053866;28;20506;-45
2023/11/07 04:55:55;;;;;;;8.83;7.90;;;;;;;;;;5053534;28;20981;-45
2023/11/07 04:58:21;;;;;;;8.70;7.80;;;;;;;;;;5053662;28;20800;-46
2023/11/07 05:00:47;;;;;;;8.80;7.93;;;;;;;;;;5053724;28;20901;-45
2023/11/07 05:03:16;;;;;;;11.37;10.27;;;;;;;;;;5054805;28;20936;-45
2023/11/07 05:05:42;;;;;;;10.40;9.40;;;;;;;;;;5055328;28;20433;-46
2023/11/07 05:08:08;;;;;;;10.33;9.33;;;;;;;;;;5053952;28;21068;-45
2023/11/07 05:10:35;;;;;;;10.47;9.47;;;;;;;;;;5053563;28;20753;-45
2023/11/07 05:13:01;;;;;;;9.73;8.80;;;;;;;;;;5053346;28;20409;-45
2023/11/07 05:15:27;;;;;;;9.03;8.13;;;;;;;;;;5060943;28;20429;-45
2023/11/07 05:17:55;;;;;;;11.20;10.13;;;;;;;;;;5053266;28;20413;-45
2023/11/07 05:20:20;;;;;;;9.07;8.13;;;;;;;;;;5053332;28;20438;-45
2023/11/07 05:22:46;;;;;;;9.10;8.03;;;;;;;;;;5053352;28;20527;-45
2023/11/07 05:25:12;;;;;;;8.33;7.53;;;;;;;;;;5052994;28;20425;-45
2023/11/07 05:27:38;;;;;;;9.00;8.10;;;;;;;;;;5053063;28;20457;-45
2023/11/07 05:30:04;;;;;;;9.20;8.17;;;;;;;;;;5060786;28;20401;-46
2023/11/07 05:32:30;;;;;;;8.90;7.37;;;;;;;;;;5053138;28;20467;-45
2023/11/07 05:34:56;;;;;;;9.63;7.90;;;;;;;;;;5048674;28;20441;-45
2023/11/07 05:37:25;;;;;;;8.33;7.30;;;;;;;;;;5047210;28;20602;-45
2023/11/07 05:39:51;;;;;;;7.70;6.57;;;;;;;;;;5053010;28;20409;-45
2023/11/07 05:42:18;;;;;;;8.13;6.67;;;;;;;;;;5052950;28;20409;-45
2023/11/07 05:44:44;;;;;;;9.23;8.00;;;;;;;;;;5052680;28;20433;-45
2023/11/07 05:47:13;;;;;;;8.43;7.30;;;;;;;;;;5052727;28;20466;-45
2023/11/07 05:49:39;;;;;;;9.03;7.30;;;;;;;;;;5052964;28;20450;-45
2023/11/07 05:52:05;;;;;;;9.77;8.77;;;;;;;;;;5052648;28;20410;-45
2023/11/07 05:54:31;;;;;;;9.07;7.90;;;;;;;;;;5044774;28;20430;-45
2023/11/07 05:56:57;;;;;;;8.97;7.40;;;;;;;;;;5051159;28;20441;-45
2023/11/07 05:59:25;;;;;;;9.03;8.10;;;;;;;;;;5051858;28;20610;-45
2023/11/07 06:01:52;;;;;;;8.03;7.17;;;;;;;;;;5051974;28;20510;-45
2023/11/07 06:07:21;;;;;;;9.97;8.13;;;;;;;;;;5041410;28;20516;-45
2023/11/07 06:09:47;;;;;;;8.83;7.37;;;;;;;;;;5047731;28;20409;-45
2023/11/07 06:12:13;;;;;;;7.10;6.10;;;;;;;;;;5052138;28;20820;-45
2023/11/07 06:14:40;;;;;;;8.80;7.33;;;;;;;;;;5046831;28;20991;-45
2023/11/07 06:17:07;;;;;;;9.00;7.60;;;;;;;;;;5050681;28;20788;-45
2023/11/07 06:19:33;;;;;;;8.10;7.30;;;;;;;;;;5045787;28;20417;-45
2023/11/07 06:21:59;;;;;;;8.40;6.50;;;;;;;;;;5051901;28;20428;-45
2023/11/07 06:24:25;;;;;;;12.43;9.70;;;;;;;;;;5049960;28;20438;-45
2023/11/07 06:26:51;;;;;;;12.20;9.10;;;;;;;;;;5049134;28;20795;-44
2023/11/07 06:29:17;;;;;;;9.27;7.40;;;;;;;;;;5050430;28;20401;-44
2023/11/07 06:31:45;;;;;;;9.13;8.13;;;;;;;;;;5048205;28;20444;-45
2023/11/07 06:34:11;;;;;;;8.77;7.17;;;;;;;;;;5051607;28;20945;-45
2023/11/07 06:36:37;;;;;;;8.10;6.67;;;;;;;;;;5051995;28;20441;-45
2023/11/07 06:39:04;;;;;;;9.20;6.73;;;;;;;;;;5050944;28;20500;-45
2023/11/07 06:41:32;;;;;;;8.53;6.83;;;;;;;;;;5049665;28;20416;-45
2023/11/07 06:43:58;;;;;;;7.77;6.40;;;;;;;;;;5051615;28;20515;-45
2023/11/07 06:46:24;;;;;;;8.87;6.57;;;;;;;;;;5051785;28;20406;-45
2023/11/07 06:48:50;;;;;;;8.53;7.03;;;;;;;;;;5051767;28;20484;-45
2023/11/07 06:51:20;;;;;;;8.40;6.53;;;;;;;;;;5051726;28;20481;-45
2023/11/07 06:53:46;;;;;;;10.27;7.10;;;;;;;;;;5051060;28;20436;-45
2023/11/07 06:56:13;;;;;;;8.73;6.73;;;;;;;;;;5050243;28;20433;-45
2023/11/07 06:58:40;;;;;;;8.37;6.47;;;;;;;;;;5051665;28;20475;-45
2023/11/07 07:01:06;;;;;;;8.63;6.70;;;;;;;;;;5051176;28;20417;-45
2023/11/07 07:03:33;;;;;;;8.97;6.70;;;;;;;;;;5045446;28;20791;-45
2023/11/07 07:05:59;;;;;;;8.80;6.73;;;;;;;;;;5048646;28;20429;-45
2023/11/07 07:08:25;;;;;;;8.70;7.23;;;;;;;;;;5051718;28;20942;-45
2023/11/07 07:10:51;;;;;;;8.63;7.73;;;;;;;;;;5051476;28;20784;-45
2023/11/07 07:13:19;;;;;;;10.30;8.80;;;;;;;;;;5051221;28;20499;-45
2023/11/07 07:15:45;;;;;;;9.23;8.00;;;;;;;;;;5051750;28;20433;-45
2023/11/07 07:18:18;;;;;;;9.43;8.50;;;;;;;;;;5051433;28;20437;-44
2023/11/07 07:20:45;;;;;;;8.63;7.43;;;;;;;;;;5051194;28;20416;-44
2023/11/07 07:23:11;;;;;;;8.50;7.60;;;;;;;;;;5052085;28;20441;-46
2023/11/07 07:25:37;;;;;;;8.80;7.27;;;;;;;;;;5051305;28;20425;-44
2023/11/07 07:28:04;;;;;;;8.23;6.60;;;;;;;;;;5051244;28;20456;-44
2023/11/07 07:30:32;;;;;;;10.43;9.30;;;;;;;;;;5053795;28;20413;-44
2023/11/07 07:32:58;;;;;;;9.33;7.80;;;;;;;;;;5061458;28;20508;-44
2023/11/07 07:35:29;;;;;;;8.73;7.33;;;;;;;;;;5055107;28;20436;-44
2023/11/07 07:37:55;;;;;;;8.03;5.60;;;;;;;;;;5055394;28;20943;-44
2023/11/07 07:40:25;;;;;;;7.43;6.53;;;;;;;;;;5058020;28;20413;-44
2023/11/07 07:42:53;;;;;;;9.03;7.33;;;;;;;;;;5059566;28;20415;-44
2023/11/07 07:45:19;;;;;;;8.63;7.10;;;;;;;;;;5056591;28;20421;-45
2023/11/07 07:47:46;;;;;;;8.53;6.63;;;;;;;;;;5059221;28;20817;-43
2023/11/07 07:50:12;;;;;;;7.80;6.80;;;;;;;;;;5047353;28;20787;-45
2023/11/07 07:52:38;;;;;;;7.83;6.03;;;;;;;;;;5055256;28;20407;-44
2023/11/07 07:55:08;;;;;;;8.40;6.43;;;;;;;;;;5057361;28;20433;-44
2023/11/07 07:57:36;;;;;;;10.60;7.70;;;;;;;;;;5054709;28;20433;-44
2023/11/07 08:00:03;;;;;;;8.57;6.30;;;;;;;;;;5057585;28;20604;-44
2023/11/07 08:02:29;;;;;;;9.13;8.03;;;;;;;;;;5054844;28;20960;-45
2023/11/07 08:04:56;;;;;;;7.30;6.43;;;;;;;;;;5044281;28;20582;-44
2023/11/07 08:07:22;;;;;;;9.30;8.30;;;;;;;;;;5046606;28;20456;-44
2023/11/07 08:09:50;;;;;;;10.93;8.37;;;;;;;;;;5049508;28;20405;-44
2023/11/07 08:12:16;;;;;;;9.00;8.10;;;;;;;;;;5052998;28;20783;-44
2023/11/07 08:14:46;;;;;;;11.13;9.80;;;;;;;;;;5054347;28;20512;-45
2023/11/07 08:17:12;;;;;;;10.47;9.47;;;;;;;;;;5053208;28;20416;-46
2023/11/07 08:19:38;;;;;;;9.63;8.70;;;;;;;;;;5054493;28;20429;-44
2023/11/07 08:22:06;;;;;;;10.03;9.10;;;;;;;;;;5054454;28;20517;-44
2023/11/07 08:24:33;;;;;;;10.43;9.40;;;;;;;;;;5049979;28;20448;-44
2023/11/07 08:26:59;;;;;;;11.50;10.50;;;;;;;;;;5051970;28;20421;-45
2023/11/07 08:29:26;;;;;;;13.00;11.90;;;;;;;;;;5054398;28;20427;-44
2023/11/07 08:31:52;;;;;;;12.10;11.07;;;;;;;;;;5052683;28;20428;-45
2023/11/07 08:34:22;;;;;;;11.43;10.43;;;;;;;;;;5054126;28;20425;-44
2023/11/07 08:36:48;;;;;;;11.27;10.23;;;;;;;;;;5054132;28;20417;-45
2023/11/07 08:39:28;;;;;;;11.00;10.00;;;;;;;;;;5054104;28;20780;-43
2023/11/07 08:41:55;;;;;;;10.17;9.27;;;;;;;;;;5053165;28;20409;-45
2023/11/07 08:44:21;;;;;;;10.87;9.87;;;;;;;;;;5052221;28;20449;-44
2023/11/07 08:46:48;;;;;;;11.40;10.50;;;;;;;;;;5053980;28;20418;-44
2023/11/07 08:49:16;;;;;;;11.63;10.73;;;;;;;;;;5054089;28;20399;-44
2023/11/07 08:51:43;;;;;;;13.77;12.47;;;;;;;;;;5049532;28;20815;-44
2023/11/07 08:54:09;;;;;;;11.40;10.50;;;;;;;;;;5053555;28;20813;-44
2023/11/07 08:56:36;;;;;;;12.40;11.30;;;;;;;;;;5053661;28;20422;-44
2023/11/07 08:59:01;;;;;;;11.10;10.20;;;;;;;;;;5052254;28;20413;-45
2023/11/07 09:01:27;;;;;;;12.10;11.10;;;;;;;;;;5050551;28;20440;-43
2023/11/07 09:03:53;;;;;;;13.53;12.33;;;;;;;;;;5053418;28;20445;-44
2023/11/07 09:06:19;;;;;;;11.63;10.60;;;;;;;;;;5046767;28;20436;-44
2023/11/07 09:08:46;;;;;;;13.00;11.87;;;;;;;;;;5053317;28;20463;-45
2023/11/07 09:11:12;;;;;;;12.23;11.13;;;;;;;;;;5051002;28;20409;-44
2023/11/07 09:13:39;;;;;;;12.70;11.60;;;;;;;;;;5051097;28;20421;-44
2023/11/07 09:16:08;;;;;;;12.13;10.93;;;;;;;;;;5063901;28;20728;-44
2023/11/07 09:18:34;;;;;;;15.40;13.80;;;;;;;;;;5064257;28;20455;-44
2023/11/07 09:21:00;;;;;;;12.63;11.63;;;;;;;;;;5052841;28;20454;-44
2023/11/07 09:23:26;;;;;;;16.60;14.93;;;;;;;;;;5055763;28;20413;-44
2023/11/07 09:25:52;;;;;;;13.40;12.30;;;;;;;;;;5056234;28;20439;-44
2023/11/07 09:28:18;;;;;;;12.63;11.57;;;;;;;;;;5060412;28;20536;-45
2023/11/07 09:30:44;;;;;;;12.07;11.07;;;;;;;;;;5053244;28;20438;-45
2023/11/07 09:33:10;;;;;;;13.07;11.97;;;;;;;;;;5055705;28;20413;-44
2023/11/07 09:35:37;;;;;;;13.07;11.97;;;;;;;;;;5052907;28;20431;-44
2023/11/07 09:38:06;;;;;;;12.27;11.23;;;;;;;;;;5058835;28;20433;-44
2023/11/07 09:40:33;;;;;;;11.87;10.83;;;;;;;;;;5058099;28;20932;-44
2023/11/07 09:43:01;;;;;;;13.53;12.40;;;;;;;;;;5055470;28;20803;-44
2023/11/07 09:45:34;;;;;;;9.90;9.10;;;;;;;;;;5053099;28;20479;-44
2023/11/07 09:48:00;;;;;;;12.13;11.13;;;;;;;;;;5051025;28;20542;-44
2023/11/07 09:50:28;;;;;;;12.00;11.00;;;;;;;;;;5056877;28;20858;-44
2023/11/07 09:52:54;;;;;;;12.80;11.80;;;;;;;;;;5052715;28;20918;-44
2023/11/07 09:55:21;;;;;;;12.87;11.77;;;;;;;;;;5059847;28;20934;-44
2023/11/07 09:57:47;;;;;;;12.13;11.13;;;;;;;;;;5051765;28;20418;-45
2023/11/07 10:00:13;;;;;;;10.93;10.03;;;;;;;;;;5052575;28;20409;-44
2023/11/07 10:02:40;;;;;;;13.57;12.47;;;;;;;;;;5055529;28;20808;-45
2023/11/07 10:05:07;;;;;;;12.70;11.70;;;;;;;;;;5053346;28;20936;-44
2023/11/07 10:07:33;;;;;;;14.33;13.23;;;;;;;;;;5056857;28;20460;-44
2023/11/07 10:10:05;;;;;;;13.87;12.70;;;;;;;;;;5052558;28;20401;-44
2023/11/07 10:12:32;;;;;;;12.67;11.67;;;;;;;;;;5052427;28;20803;-44
2023/11/07 10:14:57;;;;;;;12.43;11.43;;;;;;;;;;5054466;28;20419;-44
2023/11/07 10:17:23;;;;;;;17.80;16.10;;;;;;;;;;5055132;28;20416;-44
2023/11/07 10:20:05;;;;;;;12.40;11.40;;;;;;;;;;5057789;28;20559;-44
2023/11/07 10:22:43;;;;;;;11.67;10.67;;;;;;;;;;5062767;28;20791;-44
2023/11/07 10:25:11;;;;;;;12.83;11.77;;;;;;;;;;5032067;28;20422;-44
2023/11/07 10:27:36;;;;;;;12.40;11.30;;;;;;;;;;5032637;28;20489;-44
2023/11/07 10:30:04;;;;;;;12.53;11.43;;;;;;;;;;5052050;28;20464;-44
2023/11/07 10:32:46;;;;;;;11.53;10.57;;;;;;;;;;5070244;28;20414;-44
2023/11/07 10:35:12;;;;;;;11.60;10.70;;;;;;;;;;5054764;28;20846;-45
2023/11/07 10:37:38;;;;;;;12.47;11.40;;;;;;;;;;5065890;28;20405;-44
2023/11/07 10:40:05;;;;;;;13.80;12.70;;;;;;;;;;5061542;28;20419;-44
2023/11/07 10:42:34;;;;;;;14.90;13.70;;;;;;;;;;5051777;28;20416;-45
2023/11/07 10:45:03;;;;;;;13.80;12.67;;;;;;;;;;5057001;28;20536;-44
2023/11/07 10:47:37;;;;;;;14.10;13.00;;;;;;;;;;5069007;28;20478;-45
2023/11/07 10:50:04;;;;;;;16.03;14.73;;;;;;;;;;5052642;28;20403;-45
2023/11/07 10:52:30;;;;;;;14.77;13.67;;;;;;;;;;5071911;28;20397;-45
2023/11/07 10:54:56;;;;;;;15.03;13.90;;;;;;;;;;5053481;28;20515;-44
2023/11/07 10:57:29;;;;;;;14.10;13.00;;;;;;;;;;5051419;28;20493;-44
2023/11/07 11:00:10;;;;;;;15.63;14.53;;;;;;;;;;5060567;28;20790;-45
2023/11/07 11:02:39;;;;;;;14.67;13.67;;;;;;;;;;5063829;28;20774;-44
2023/11/07 11:05:06;;;;;;;16.07;14.97;;;;;;;;;;5061619;28;20433;-44
2023/11/07 11:07:32;;;;;;;16.07;14.97;;;;;;;;;;5045054;28;20461;-44
2023/11/07 11:10:00;;;;;;;16.73;15.50;;;;;;;;;;5035003;28;20412;-44
2023/11/07 11:12:26;;;;;;;16.90;15.70;;;;;;;;;;5050800;28;20407;-44
2023/11/07 11:14:52;;;;;;;18.80;17.53;;;;;;;;;;5071377;28;20431;-44
2023/11/07 11:17:34;;;;;;;19.33;18.03;;;;;;;;;;5053861;28;20417;-44
2023/11/07 11:20:02;;;;;;;18.90;17.57;;;;;;;;;;5068177;28;20512;-44
2023/11/07 11:22:35;;;;;;;17.03;15.83;;;;;;;;;;5057453;28;20407;-44
2023/11/07 11:25:19;;;;;;;18.40;17.10;;;;;;;;;;5063059;28;20949;-44
2023/11/07 11:27:48;;;;;;;17.60;16.40;;;;;;;;;;5059877;28;20895;-45
2023/11/07 11:30:14;;;;;;;17.97;16.77;;;;;;;;;;5050358;28;20433;-44
2023/11/07 11:32:44;;;;;;;19.17;17.80;;;;;;;;;;5056831;28;20435;-44
2023/11/07 11:35:23;;;;;;;19.37;18.13;;;;;;;;;;5057953;28;20847;-44
2023/11/07 11:38:15;;;;;;;23.73;22.23;;;;;;;;;;5069306;28;20791;-44
2023/11/07 11:40:49;;;;;;;26.50;24.87;;;;;;;;;;5051391;28;20543;-44
2023/11/07 11:43:16;;;;;;;60.57;55.07;;;;;;;;;;5051180;28;20433;-44
2023/11/07 11:45:43;;;;;;;68.07;60.77;;;;;;;;;;5051214;28;20429;-44
2023/11/07 11:48:09;;;;;;;66.70;60.07;;;;;;;;;;5069271;28;20459;-44
2023/11/07 11:50:37;;;;;;;68.03;61.90;;;;;;;;;;5056243;28;20774;-44
2023/11/07 11:53:04;;;;;;;59.57;54.73;;;;;;;;;;5049014;28;20966;-44
2023/11/07 11:55:49;;;;;;;55.70;51.60;;;;;;;;;;5050694;28;20451;-44
2023/11/07 11:58:16;;;;;;;45.20;42.30;;;;;;;;;;5056343;28;20406;-44
2023/11/07 12:00:44;;;;;;;50.93;47.10;;;;;;;;;;5051116;28;20404;-44
2023/11/07 12:03:18;;;;;;;48.93;45.20;;;;;;;;;;5050650;28;20854;-47
2023/11/07 12:06:01;;;;;;;45.83;42.33;;;;;;;;;;5051468;28;20681;-44
2023/11/07 12:08:35;;;;;;;54.33;49.33;;;;;;;;;;5043859;28;20455;-44
2023/11/07 12:11:02;;;;;;;58.53;52.73;;;;;;;;;;5049203;28;20415;-45
2023/11/07 12:13:31;;;;;;;62.10;55.60;;;;;;;;;;5056128;28;20408;-44
2023/11/07 12:15:57;;;;;;;45.30;41.93;;;;;;;;;;5057705;28;20962;-44
2023/11/07 12:18:23;;;;;;;42.90;39.80;;;;;;;;;;5053865;28;20415;-45
2023/11/07 12:20:50;;;;;;;43.97;40.67;;;;;;;;;;5056543;28;20797;-44
2023/11/07 12:23:16;;;;;;;43.40;40.10;;;;;;;;;;5049825;28;20967;-44
2023/11/07 12:25:51;;;;;;;54.43;48.13;;;;;;;;;;5058440;28;20436;-45
2023/11/07 12:28:17;;;;;;;88.63;61.90;;;;;;;;;;5046081;28;20466;-44
2023/11/07 12:30:53;;;;;;;78.87;58.63;;;;;;;;;;5053515;28;20782;-45
2023/11/07 12:33:19;;;;;;;91.27;66.47;;;;;;;;;;5052499;28;20407;-44
2023/11/07 12:35:45;;;;;;;69.83;61.77;;;;;;;;;;5055492;28;20428;-44
2023/11/07 12:38:13;;;;;;;71.10;63.73;;;;;;;;;;5057388;28;20417;-45
2023/11/07 12:40:40;;;;;;;73.07;65.27;;;;;;;;;;5052390;28;20421;-46
2023/11/07 12:43:09;;;;;;;70.07;62.33;;;;;;;;;;5060429;28;20420;-44
2023/11/07 12:45:36;;;;;;;69.53;62.43;;;;;;;;;;5053656;28;20490;-44
2023/11/07 12:48:03;;;;;;;138.67;73.90;;;;;;;;;;5055798;28;20456;-44
2023/11/07 12:50:33;;;;;;;113.50;67.97;;;;;;;;;;5054690;28;20409;-44
2023/11/07 12:53:02;;;;;;;54.47;49.73;;;;;;;;;;5056093;28;20401;-44
2023/11/07 12:55:28;;;;;;;60.43;49.87;;;;;;;;;;5058774;28;20750;-44
2023/11/07 12:57:59;;;;;;;45.57;41.87;;;;;;;;;;5053653;28;20448;-45
2023/11/07 13:00:26;;;;;;;50.03;45.57;;;;;;;;;;5053675;28;20424;-44
2023/11/07 13:02:59;;;;;;;54.57;50.07;;;;;;;;;;5053730;28;20846;-44
2023/11/07 13:05:26;;;;;;;39.53;37.10;;;;;;;;;;5057041;28;20444;-45
2023/11/07 13:07:52;;;;;;;49.07;45.33;;;;;;;;;;5058659;28;20456;-44
2023/11/07 13:10:20;;;;;;;46.37;42.97;;;;;;;;;;5053662;28;20398;-44
2023/11/07 13:12:46;;;;;;;21.60;20.20;;;;;;;;;;5053896;28;20815;-44
2023/11/07 13:15:16;;;;;;;18.17;16.87;;;;;;;;;;5052996;28;20487;-44
2023/11/07 13:17:42;;;;;;;18.57;17.30;;;;;;;;;;5055157;28;20861;-44
2023/11/07 13:20:10;;;;;;;24.93;23.40;;;;;;;;;;5056823;28;20493;-44
2023/11/07 13:22:36;;;;;;;25.53;23.93;;;;;;;;;;5058545;28;20419;-44
2023/11/07 13:25:07;;;;;;;26.20;24.50;;;;;;;;;;5053908;28;20798;-44
2023/11/07 13:27:34;;;;;;;28.97;27.13;;;;;;;;;;5057816;28;20478;-45
2023/11/07 13:30:02;;;;;;;26.13;24.40;;;;;;;;;;5070346;28;20496;-45
2023/11/07 13:32:30;;;;;;;24.00;22.57;;;;;;;;;;5053616;28;20409;-45
2023/11/07 13:34:57;;;;;;;22.20;20.80;;;;;;;;;;5072959;28;20454;-45
2023/11/07 13:37:24;;;;;;;23.87;22.40;;;;;;;;;;5055245;28;20413;-45
2023/11/07 13:39:50;;;;;;;23.70;22.20;;;;;;;;;;5067863;28;20404;-45
2023/11/07 13:42:16;;;;;;;23.20;21.73;;;;;;;;;;5061197;28;20511;-44
2023/11/07 13:44:42;;;;;;;21.87;20.37;;;;;;;;;;5061443;28;20871;-44
2023/11/07 13:47:08;;;;;;;21.80;20.30;;;;;;;;;;5067050;28;20417;-44
2023/11/07 13:49:34;;;;;;;20.60;19.30;;;;;;;;;;5055703;28;20412;-45
2023/11/07 13:52:00;;;;;;;21.93;20.43;;;;;;;;;;5072873;28;20401;-45
2023/11/07 13:54:26;;;;;;;21.80;20.40;;;;;;;;;;5053031;28;20494;-44
2023/11/07 13:56:52;;;;;;;23.03;21.57;;;;;;;;;;5069416;28;20922;-45
2023/11/07 13:59:18;;;;;;;26.00;24.50;;;;;;;;;;5058922;28;20430;-45
2023/11/07 14:01:45;;;;;;;25.70;24.20;;;;;;;;;;5063482;28;20495;-45
2023/11/07 14:04:11;;;;;;;28.80;27.10;;;;;;;;;;5064455;28;20526;-44
2023/11/07 14:06:37;;;;;;;35.80;33.33;;;;;;;;;;5057153;28;20417;-45
2023/11/07 14:09:04;;;;;;;42.90;39.70;;;;;;;;;;5068756;28;20454;-45
2023/11/07 14:11:30;;;;;;;46.23;42.43;;;;;;;;;;5032639;28;20426;-44
2023/11/07 14:13:56;;;;;;;39.03;36.33;;;;;;;;;;5051083;28;20408;-44
2023/11/07 14:16:24;;;;;;;26.33;24.73;;;;;;;;;;5068186;28;20418;-45
2023/11/07 14:18:51;;;;;;;43.97;40.60;;;;;;;;;;5059106;28;20412;-45
2023/11/07 14:21:17;;;;;;;47.10;43.50;;;;;;;;;;5041953;28;20447;-44
2023/11/07 14:23:46;;;;;;;43.63;40.37;;;;;;;;;;5039229;28;20784;-44
2023/11/07 14:26:13;;;;;;;36.33;34.03;;;;;;;;;;5056873;28;20414;-45
2023/11/07 14:28:39;;;;;;;33.40;31.23;;;;;;;;;;5070385;28;20509;-44
2023/11/07 14:31:07;;;;;;;23.00;21.50;;;;;;;;;;5052110;28;20503;-45
2023/11/07 14:33:33;;;;;;;26.83;25.17;;;;;;;;;;5070826;28;20405;-45